Time,TemperatureF,DewpointF,PressureIn,WindDirection,WindDirectionDegrees,WindSpeedMPH,WindSpeedGustMPH,Humidity,HourlyPrecipIn,Conditions,Clouds,dailyrainin,SoftwareType,DateUTC
2013-05-07 00:04:00,47.6,45.0,26.44,SSE,163,0.0,-999.0,90,-99.99,,,0.00,weatherlink.com 1.10,2013-05-07 04:04:00,
2013-05-07 00:19:00,47.3,45.0,26.44,SSE,163,0.0,-999.0,90,-99.99,,,0.00,weatherlink.com 1.10,2013-05-07 04:19:00,
2013-05-07 00:34:00,47.3,45.0,26.44,SSE,163,0.0,-999.0,91,-99.99,,,0.00,weatherlink.com 1.10,2013-05-07 04:34:00,
2013-05-07 00:49:00,47.1,45.0,25.25,SSE,163,0.0,-999.0,91,-99.99,,,0.00,weatherlink.com 1.10,2013-05-07 04:49:00,
2013-05-07 01:04:00,46.8,44.0,25.25,SSE,163,0.0,-999.0,91,-99.99,,,0.00,weatherlink.com 1.10,2013-05-07 05:04:00,
2013-05-07 01:19:00,45.8,43.0,24.21,SSE,163,0.0,-999.0,90,-99.99,,,0.00,weatherlink.com 1.10,2013-05-07 05:19:00,
2013-05-07 01:34:00,45.3,43.0,26.86,SSE,163,0.0,-999.0,91,-99.99,,,0.00,weatherlink.com 1.10,2013-05-07 05:34:00,
2013-05-07 01:49:00,45.1,43.0,26.86,SSE,163,0.0,-999.0,91,-99.99,,,0.00,weatherlink.com 1.10,2013-05-07 05:49:00,
2013-05-07 02:04:00,44.7,42.0,23.27,SSE,163,0.0,-999.0,91,-99.99,,,0.00,weatherlink.com 1.10,2013-05-07 06:04:00,
2013-05-07 02:19:00,44.3,42.0,23.27,SSE,163,0.0,-999.0,91,-99.99,,,0.00,weatherlink.com 1.10,2013-05-07 06:19:00,
2013-05-07 02:34:00,43.8,41.0,23.27,SSE,163,0.0,-999.0,91,-99.99,,,0.00,weatherlink.com 1.10,2013-05-07 06:34:00,
2013-05-07 02:49:00,43.4,41.0,22.27,SSE,163,0.0,-999.0,91,-99.99,,,0.00,weatherlink.com 1.10,2013-05-07 06:49:00,
2013-05-07 03:04:00,43.1,41.0,26.83,SSE,163,0.0,-999.0,91,-99.99,,,0.00,weatherlink.com 1.10,2013-05-07 07:04:00,
2013-05-07 03:19:00,43.0,41.0,26.83,SSE,163,0.0,-999.0,91,-99.99,,,0.00,weatherlink.com 1.10,2013-05-07 07:19:00,
2013-05-07 03:34:00,42.7,40.0,26.83,SSE,163,0.0,-999.0,91,-99.99,,,0.00,weatherlink.com 1.10,2013-05-07 07:34:00,
2013-05-07 03:49:00,42.3,40.0,26.83,SSE,163,0.0,-999.0,91,-99.99,,,0.00,weatherlink.com 1.10,2013-05-07 07:49:00,
2013-05-07 04:04:00,41.7,40.0,25.24,SSE,163,0.0,-999.0,92,-99.99,,,0.00,weatherlink.com 1.10,2013-05-07 08:04:00,
2013-05-07 04:19:00,41.7,40.0,24.27,SSE,163,0.0,-999.0,92,-99.99,,,0.00,weatherlink.com 1.10,2013-05-07 08:19:00,
2013-05-07 04:34:00,41.4,39.0,25.25,SSE,163,0.0,-999.0,92,-99.99,,,0.00,weatherlink.com 1.10,2013-05-07 08:34:00,
2013-05-07 04:49:00,41.1,39.0,25.25,SSE,163,0.0,-999.0,92,-99.99,,,0.00,weatherlink.com 1.10,2013-05-07 08:49:00,
2013-05-07 05:04:00,41.0,39.0,25.25,SSE,163,0.0,-999.0,92,-99.99,,,0.00,weatherlink.com 1.10,2013-05-07 09:04:00,
2013-05-07 05:19:00,40.7,39.0,25.12,SSE,163,0.0,-999.0,92,-99.99,,,0.00,weatherlink.com 1.10,2013-05-07 09:19:00,
2013-05-07 05:34:00,40.6,39.0,25.00,SSE,163,0.0,-999.0,92,-99.99,,,0.00,weatherlink.com 1.10,2013-05-07 09:34:00,
2013-05-07 05:49:00,40.4,38.0,24.92,SSE,163,0.0,-999.0,92,-99.99,,,0.00,weatherlink.com 1.10,2013-05-07 09:49:00,
2013-05-07 06:04:00,40.3,38.0,24.93,SSE,163,0.0,-999.0,92,-99.99,,,0.00,weatherlink.com 1.10,2013-05-07 10:04:00,
2013-05-07 06:19:00,40.5,39.0,24.92,SSE,163,0.0,-999.0,93,-99.99,,,0.00,weatherlink.com 1.10,2013-05-07 10:19:00,
2013-05-07 06:34:00,41.1,39.0,24.83,SSE,163,0.0,-999.0,93,-99.99,,,0.00,weatherlink.com 1.10,2013-05-07 10:34:00,
2013-05-07 06:49:00,42.5,41.0,24.93,SSE,163,0.0,-999.0,93,-99.99,,,0.00,weatherlink.com 1.10,2013-05-07 10:49:00,
2013-05-07 07:04:00,45.0,43.0,24.93,SSE,163,0.0,-999.0,94,-99.99,,,0.00,weatherlink.com 1.10,2013-05-07 11:04:00,
2013-05-07 07:19:00,48.3,47.0,24.92,SSE,163,0.0,-999.0,94,-99.99,,,0.00,weatherlink.com 1.10,2013-05-07 11:19:00,
2013-05-07 07:34:00,51.0,49.0,24.91,SSE,163,0.0,-999.0,94,-99.99,,,0.00,weatherlink.com 1.10,2013-05-07 11:34:00,
2013-05-07 07:49:00,53.4,51.0,24.51,SSE,163,0.0,-999.0,92,-99.99,,,0.00,weatherlink.com 1.10,2013-05-07 11:49:00,
2013-05-07 08:04:00,56.7,53.0,25.12,SSE,163,0.0,-999.0,86,-99.99,,,0.00,weatherlink.com 1.10,2013-05-07 12:04:00,
2013-05-07 08:19:00,59.6,52.0,25.12,SSE,163,0.0,-999.0,77,-99.99,,,0.00,weatherlink.com 1.10,2013-05-07 12:19:00,
2013-05-07 08:34:00,61.4,52.0,25.25,South,172,0.0,-999.0,71,-99.99,,,0.00,weatherlink.com 1.10,2013-05-07 12:34:00,
2013-05-07 08:49:00,63.7,52.0,26.52,SSW,195,0.0,-999.0,66,-99.99,,,0.00,weatherlink.com 1.10,2013-05-07 12:49:00,
2013-05-07 09:04:00,65.2,53.0,25.25,North,11,0.0,-999.0,64,-99.99,,,0.00,weatherlink.com 1.10,2013-05-07 13:04:00,
2013-05-07 09:19:00,66.6,54.0,25.25,NNE,26,0.0,-999.0,64,-99.99,,,0.00,weatherlink.com 1.10,2013-05-07 13:19:00,
2013-05-07 09:34:00,67.9,53.0,25.25,North,360,0.0,-999.0,60,-99.99,,,0.00,weatherlink.com 1.10,2013-05-07 13:34:00,
2013-05-07 09:49:00,68.7,52.0,25.25,NNE,20,3.0,-999.0,56,-99.99,,,0.00,weatherlink.com 1.10,2013-05-07 13:49:00,
2013-05-07 10:04:00,70.6,54.0,25.27,ENE,68,0.0,-999.0,55,-99.99,,,0.00,weatherlink.com 1.10,2013-05-07 14:04:00,
2013-05-07 10:20:00,71.7,53.0,25.27,NNW,340,2.0,-999.0,52,-99.99,,,0.00,weatherlink.com 1.10,2013-05-07 14:20:00,
2013-05-07 10:34:00,72.8,52.0,25.27,SW,230,1.0,-999.0,49,-99.99,,,0.00,weatherlink.com 1.10,2013-05-07 14:34:00,
2013-05-07 10:49:00,73.1,54.0,25.27,ESE,112,1.0,-999.0,51,-99.99,,,0.00,weatherlink.com 1.10,2013-05-07 14:49:00,
2013-05-07 11:04:00,72.7,53.0,24.12,SE,127,3.0,-999.0,50,-99.99,,,0.00,weatherlink.com 1.10,2013-05-07 15:04:00,
2013-05-07 11:19:00,73.5,54.0,24.12,West,273,0.0,-999.0,51,-99.99,,,0.00,weatherlink.com 1.10,2013-05-07 15:19:00,
2013-05-07 11:34:00,74.1,53.0,26.37,ENE,78,0.0,-999.0,48,-99.99,,,0.00,weatherlink.com 1.10,2013-05-07 15:34:00,
2013-05-07 11:49:00,74.3,52.0,26.37,SE,128,4.0,-999.0,45,-99.99,,,0.00,weatherlink.com 1.10,2013-05-07 15:49:00,
2013-05-07 12:04:00,74.9,52.0,25.11,ENE,63,0.0,-999.0,45,-99.99,,,0.00,weatherlink.com 1.10,2013-05-07 16:04:00,
2013-05-07 12:19:00,76.2,53.0,25.11,ENE,63,0.0,-999.0,45,-99.99,,,0.00,weatherlink.com 1.10,2013-05-07 16:19:00,
2013-05-07 12:34:00,76.4,53.0,25.11,SW,215,0.0,-999.0,45,-99.99,,,0.00,weatherlink.com 1.10,2013-05-07 16:34:00,
2013-05-07 12:49:00,76.6,55.0,25.11,WSW,242,0.0,-999.0,47,-99.99,,,0.00,weatherlink.com 1.10,2013-05-07 16:49:00,
2013-05-07 13:04:00,77.1,55.0,25.11,East,98,0.0,-999.0,46,-99.99,,,0.00,weatherlink.com 1.10,2013-05-07 17:04:00,
2013-05-07 13:19:00,77.7,55.0,25.11,West,271,4.0,-999.0,45,-99.99,,,0.00,weatherlink.com 1.10,2013-05-07 17:19:00,
2013-05-07 13:34:00,78.7,55.0,25.11,ESE,103,0.0,-999.0,44,-99.99,,,0.00,weatherlink.com 1.10,2013-05-07 17:34:00,
2013-05-07 13:48:00,79.4,56.0,25.11,SE,137,5.0,-999.0,44,-99.99,,,0.00,weatherlink.com 1.10,2013-05-07 17:48:00,
2013-05-07 14:05:00,78.7,56.0,25.11,SSE,148,0.0,-999.0,46,-99.99,,,0.00,weatherlink.com 1.10,2013-05-07 18:05:00,
2013-05-07 14:19:00,78.1,56.0,25.11,NNW,329,0.0,-999.0,47,-99.99,,,0.00,weatherlink.com 1.10,2013-05-07 18:19:00,
2013-05-07 14:34:00,77.1,56.0,25.11,SE,126,2.0,-999.0,48,-99.99,,,0.00,weatherlink.com 1.10,2013-05-07 18:34:00,
2013-05-07 14:49:00,77.9,57.0,25.11,ESE,111,0.0,-999.0,49,-99.99,,,0.00,weatherlink.com 1.10,2013-05-07 18:49:00,
2013-05-07 15:04:00,77.3,56.0,25.11,ESE,119,0.0,-999.0,48,-99.99,,,0.00,weatherlink.com 1.10,2013-05-07 19:04:00,
2013-05-07 15:19:00,78.3,56.0,25.11,SE,130,0.0,-999.0,47,-99.99,,,0.00,weatherlink.com 1.10,2013-05-07 19:19:00,
2013-05-07 15:34:00,76.5,56.0,25.11,East,85,1.0,-999.0,49,-99.99,,,0.00,weatherlink.com 1.10,2013-05-07 19:34:00,
2013-05-07 15:49:00,77.0,56.0,25.11,SSW,198,0.0,-999.0,48,-99.99,,,0.00,weatherlink.com 1.10,2013-05-07 19:49:00,
2013-05-07 16:04:00,77.5,56.0,25.11,SSE,160,0.0,-999.0,48,-99.99,,,0.00,weatherlink.com 1.10,2013-05-07 20:04:00,
2013-05-07 16:19:00,77.1,56.0,25.11,ESE,109,0.0,-999.0,48,-99.99,,,0.00,weatherlink.com 1.10,2013-05-07 20:19:00,
2013-05-07 16:34:00,76.9,58.0,25.11,East,84,0.0,-999.0,52,-99.99,,,0.00,weatherlink.com 1.10,2013-05-07 20:34:00,
2013-05-07 16:49:00,76.0,58.0,25.11,SE,134,3.0,-999.0,54,-99.99,,,0.00,weatherlink.com 1.10,2013-05-07 20:49:00,
2013-05-07 17:04:00,74.6,58.0,25.11,SE,132,0.0,-999.0,57,-99.99,,,0.00,weatherlink.com 1.10,2013-05-07 21:04:00,
2013-05-07 17:19:00,74.6,58.0,25.11,SSE,147,0.0,-999.0,57,-99.99,,,0.00,weatherlink.com 1.10,2013-05-07 21:19:00,
2013-05-07 17:34:00,74.2,59.0,25.07,East,95,0.0,-999.0,59,-99.99,,,0.00,weatherlink.com 1.10,2013-05-07 21:34:00,
2013-05-07 17:49:00,73.8,59.0,24.84,SSE,159,0.0,-999.0,60,-99.99,,,0.00,weatherlink.com 1.10,2013-05-07 21:49:00,
2013-05-07 18:04:00,73.1,59.0,24.84,ESE,111,0.0,-999.0,62,-99.99,,,0.00,weatherlink.com 1.10,2013-05-07 22:04:00,
2013-05-07 18:19:00,72.9,59.0,24.80,ESE,110,1.0,-999.0,62,-99.99,,,0.00,weatherlink.com 1.10,2013-05-07 22:19:00,
2013-05-07 18:34:00,72.3,58.0,24.80,SSE,157,0.0,-999.0,61,-99.99,,,0.00,weatherlink.com 1.10,2013-05-07 22:34:00,
2013-05-07 18:49:00,71.9,57.0,0.00,SE,134,2.0,-999.0,59,-99.99,,,0.00,weatherlink.com 1.10,2013-05-07 22:49:00,
2013-05-07 19:04:00,71.6,57.0,0.00,ESE,113,0.0,-999.0,60,-99.99,,,0.00,weatherlink.com 1.10,2013-05-07 23:04:00,
2013-05-07 19:19:00,70.8,57.0,0.00,South,179,0.0,-999.0,61,-99.99,,,0.00,weatherlink.com 1.10,2013-05-07 23:19:00,
2013-05-07 19:34:00,70.1,57.0,0.00,SSW,200,0.0,-999.0,63,-99.99,,,0.00,weatherlink.com 1.10,2013-05-07 23:34:00,
2013-05-07 19:49:00,69.4,57.0,0.00,South,187,0.0,-999.0,65,-99.99,,,0.00,weatherlink.com 1.10,2013-05-07 23:49:00,
2013-05-07 20:04:00,68.5,57.0,0.00,SE,129,0.0,-999.0,67,-99.99,,,0.00,weatherlink.com 1.10,2013-05-08 00:04:00,
2013-05-07 20:19:00,67.5,57.0,0.00,SE,134,0.0,-999.0,68,-99.99,,,0.00,weatherlink.com 1.10,2013-05-08 00:19:00,
2013-05-07 20:34:00,66.5,56.0,0.00,SE,134,0.0,-999.0,70,-99.99,,,0.00,weatherlink.com 1.10,2013-05-08 00:34:00,
2013-05-07 20:49:00,65.9,56.0,0.00,SW,227,0.0,-999.0,71,-99.99,,,0.00,weatherlink.com 1.10,2013-05-08 00:49:00,
2013-05-07 21:04:00,65.2,56.0,0.00,SE,136,0.0,-999.0,72,-99.99,,,0.00,weatherlink.com 1.10,2013-05-08 01:04:00,
2013-05-07 21:19:00,64.8,56.0,0.00,SSW,213,0.0,-999.0,73,-99.99,,,0.00,weatherlink.com 1.10,2013-05-08 01:19:00,
2013-05-07 21:34:00,64.2,56.0,0.00,East,83,0.0,-999.0,74,-99.99,,,0.00,weatherlink.com 1.10,2013-05-08 01:34:00,
2013-05-07 21:49:00,63.7,56.0,0.00,East,84,0.0,-999.0,76,-99.99,,,0.00,weatherlink.com 1.10,2013-05-08 01:49:00,
2013-05-07 22:04:00,63.1,56.0,0.00,SE,145,0.0,-999.0,77,-99.99,,,0.00,weatherlink.com 1.10,2013-05-08 02:04:00,
2013-05-07 22:19:00,62.7,56.0,0.00,SSE,156,0.0,-999.0,78,-99.99,,,0.00,weatherlink.com 1.10,2013-05-08 02:19:00,
2013-05-07 22:34:00,62.3,56.0,0.00,SSE,156,0.0,-999.0,79,-99.99,,,0.00,weatherlink.com 1.10,2013-05-08 02:34:00,
2013-05-07 22:49:00,61.6,56.0,0.00,SSE,156,0.0,-999.0,81,-99.99,,,0.00,weatherlink.com 1.10,2013-05-08 02:49:00,
2013-05-07 23:04:00,61.0,56.0,0.00,SSE,156,0.0,-999.0,82,-99.99,,,0.00,weatherlink.com 1.10,2013-05-08 03:04:00,
2013-05-07 23:19:00,60.4,55.0,0.00,SSE,156,0.0,-999.0,83,-99.99,,,0.00,weatherlink.com 1.10,2013-05-08 03:19:00,
2013-05-07 23:34:00,59.7,55.0,0.00,SSE,156,0.0,-999.0,84,-99.99,,,0.00,weatherlink.com 1.10,2013-05-08 03:34:00,
2013-05-07 23:49:00,59.0,55.0,0.00,SSE,156,0.0,-999.0,85,-99.99,,,0.00,weatherlink.com 1.10,2013-05-08 03:49:00,